Huvudsida
METAR-TAF:

METAR-TAF

Flygplatser :

Umeå Airport

Umeå, Sverige

latitud: 63-48N, longitud: 020-17E, höjd: 7 m

Aktuellt väderrapport

Denna rapport gjordes för 30 minuter sedan, klockan 09:20 UTC
Vind 3 kt från väst/sydväst
Temperatur -5°C
Fuktighet 93%
Tryck 1034 hPa
Sikt 10 km eller mer
Mulet på en höjd av 300 ft

METAR: ESNU 150920Z 24003KT 9999 OVC003 M05/M06 Q1034 R14/39//42

Tid: 10:50 (09:50 UTC)

Väderprognos

Denna rapport gjordes för 1 timme och 20 minuter sedan, klockan 08:30 UTC
Prognos gäller från 15 kl. 09 UTC till 15 kl. 18 UTC
Vind 5 kt från väst
Sikt 10 km eller mer
Mulet på en höjd av 200 ft
Sannolikhet 40%
från 15 kl. 09 UTC till 15 kl. 18 UTC
Sikt: 2000 m
Spridda moln på en höjd av 400 ft
fuktdis

TAF: ESNU 150830Z 1509/1518 28005KT 9999 OVC002 PROB40 1509/1518 2000 BR SCT004

Aktuella väderrapporter och prognoser från 4000 flygplatser (METAR- och TAF-rapporter).

De tillgängliga stationerna syns som gula och röda prickar på kartan.

För musen över prickarna för att se namnen på stationerna.

Klicka sedan för att få väderrapporter och prognoser.

För att ändra kartan: Klicka på de gröna knapparna med ett svart kors på för att zooma in; den gröna knappen med ett streck på för att zooma ut; eller på de gröna pilarna för angränsande kartor.


METAR-TAF: